sensor_id;sensor_type;location;lat;lon;timestamp;P1;durP1;ratioP1;P2;durP2;ratioP2
37407;SDS011;24866;50.248;8.252;2023-04-01T00:00:31;5.80;;;1.30;;
37407;SDS011;24866;50.248;8.252;2023-04-01T00:03:02;5.43;;;0.80;;
37407;SDS011;24866;50.248;8.252;2023-04-01T00:05:33;4.73;;;0.63;;
37407;SDS011;24866;50.248;8.252;2023-04-01T00:08:03;6.82;;;1.42;;
37407;SDS011;24866;50.248;8.252;2023-04-01T00:10:33;3.72;;;0.90;;
37407;SDS011;24866;50.248;8.252;2023-04-01T00:13:04;5.03;;;0.80;;
37407;SDS011;24866;50.248;8.252;2023-04-01T00:15:34;5.22;;;0.70;;
37407;SDS011;24866;50.248;8.252;2023-04-01T00:18:06;4.28;;;0.65;;
37407;SDS011;24866;50.248;8.252;2023-04-01T00:20:36;3.70;;;0.80;;
37407;SDS011;24866;50.248;8.252;2023-04-01T00:23:06;2.97;;;0.50;;
37407;SDS011;24866;50.248;8.252;2023-04-01T00:25:36;4.68;;;0.82;;
37407;SDS011;24866;50.248;8.252;2023-04-01T00:28:07;4.75;;;0.73;;
37407;SDS011;24866;50.248;8.252;2023-04-01T00:30:37;3.42;;;0.70;;
37407;SDS011;24866;50.248;8.252;2023-04-01T00:33:10;4.32;;;0.98;;
37407;SDS011;24866;50.248;8.252;2023-04-01T00:35:40;2.33;;;0.47;;
37407;SDS011;24866;50.248;8.252;2023-04-01T00:38:10;6.75;;;1.17;;
37407;SDS011;24866;50.248;8.252;2023-04-01T00:40:41;3.42;;;0.93;;
37407;SDS011;24866;50.248;8.252;2023-04-01T00:43:14;2.97;;;0.82;;
37407;SDS011;24866;50.248;8.252;2023-04-01T00:45:48;4.13;;;0.60;;
37407;SDS011;24866;50.248;8.252;2023-04-01T00:48:21;4.47;;;0.98;;
37407;SDS011;24866;50.248;8.252;2023-04-01T00:50:55;5.07;;;0.68;;
37407;SDS011;24866;50.248;8.252;2023-04-01T00:53:30;3.65;;;0.60;;
37407;SDS011;24866;50.248;8.252;2023-04-01T00:56:02;2.28;;;0.50;;
37407;SDS011;24866;50.248;8.252;2023-04-01T00:58:37;3.05;;;0.60;;
37407;SDS011;24866;50.248;8.252;2023-04-01T01:01:10;2.67;;;0.60;;
37407;SDS011;24866;50.248;8.252;2023-04-01T01:03:42;4.65;;;0.65;;
37407;SDS011;24866;50.248;8.252;2023-04-01T01:06:22;5.63;;;0.57;;
37407;SDS011;24866;50.248;8.252;2023-04-01T01:09:02;3.95;;;0.55;;
37407;SDS011;24866;50.248;8.252;2023-04-01T01:11:40;2.67;;;0.63;;
37407;SDS011;24866;50.248;8.252;2023-04-01T01:14:16;4.18;;;0.98;;
37407;SDS011;24866;50.248;8.252;2023-04-01T01:16:56;3.20;;;0.57;;
37407;SDS011;24866;50.248;8.252;2023-04-01T01:19:37;5.38;;;1.02;;
37407;SDS011;24866;50.248;8.252;2023-04-01T01:22:24;6.43;;;1.35;;
37407;SDS011;24866;50.248;8.252;2023-04-01T01:25:11;2.92;;;0.50;;
37407;SDS011;24866;50.248;8.252;2023-04-01T01:27:51;3.53;;;0.88;;
37407;SDS011;24866;50.248;8.252;2023-04-01T01:30:33;4.03;;;0.60;;
37407;SDS011;24866;50.248;8.252;2023-04-01T01:33:18;2.00;;;0.45;;
37407;SDS011;24866;50.248;8.252;2023-04-01T01:36:10;2.83;;;0.60;;
37407;SDS011;24866;50.248;8.252;2023-04-01T01:38:43;2.25;;;0.45;;
37407;SDS011;24866;50.248;8.252;2023-04-01T01:41:15;2.78;;;0.50;;
37407;SDS011;24866;50.248;8.252;2023-04-01T01:43:47;3.30;;;0.43;;
37407;SDS011;24866;50.248;8.252;2023-04-01T01:46:21;4.50;;;0.70;;
37407;SDS011;24866;50.248;8.252;2023-04-01T01:48:54;7.78;;;0.73;;
37407;SDS011;24866;50.248;8.252;2023-04-01T01:51:26;2.42;;;0.50;;
37407;SDS011;24866;50.248;8.252;2023-04-01T01:53:57;3.10;;;1.20;;
37407;SDS011;24866;50.248;8.252;2023-04-01T01:56:27;3.22;;;0.50;;
37407;SDS011;24866;50.248;8.252;2023-04-01T01:59:00;2.92;;;0.90;;
37407;SDS011;24866;50.248;8.252;2023-04-01T02:01:35;3.85;;;0.50;;
37407;SDS011;24866;50.248;8.252;2023-04-01T02:04:07;5.13;;;0.60;;
37407;SDS011;24866;50.248;8.252;2023-04-01T02:06:41;5.43;;;0.70;;
37407;SDS011;24866;50.248;8.252;2023-04-01T02:09:15;2.72;;;0.40;;
37407;SDS011;24866;50.248;8.252;2023-04-01T02:11:48;3.72;;;0.60;;
37407;SDS011;24866;50.248;8.252;2023-04-01T02:14:21;2.65;;;0.50;;
37407;SDS011;24866;50.248;8.252;2023-04-01T02:16:54;2.67;;;0.70;;
37407;SDS011;24866;50.248;8.252;2023-04-01T02:19:27;3.70;;;0.70;;
37407;SDS011;24866;50.248;8.252;2023-04-01T02:22:05;2.88;;;0.80;;
37407;SDS011;24866;50.248;8.252;2023-04-01T02:24:40;3.20;;;0.50;;
37407;SDS011;24866;50.248;8.252;2023-04-01T02:27:11;3.78;;;0.73;;
37407;SDS011;24866;50.248;8.252;2023-04-01T02:29:41;3.95;;;0.45;;
37407;SDS011;24866;50.248;8.252;2023-04-01T02:32:11;1.65;;;0.40;;
37407;SDS011;24866;50.248;8.252;2023-04-01T02:34:45;4.03;;;0.60;;
37407;SDS011;24866;50.248;8.252;2023-04-01T02:37:20;3.10;;;0.52;;
37407;SDS011;24866;50.248;8.252;2023-04-01T02:40:01;2.50;;;0.50;;
37407;SDS011;24866;50.248;8.252;2023-04-01T02:42:34;3.45;;;0.80;;
37407;SDS011;24866;50.248;8.252;2023-04-01T02:45:05;2.53;;;0.88;;
37407;SDS011;24866;50.248;8.252;2023-04-01T02:47:36;2.87;;;0.40;;
37407;SDS011;24866;50.248;8.252;2023-04-01T02:50:07;3.45;;;0.80;;
37407;SDS011;24866;50.248;8.252;2023-04-01T02:52:39;3.60;;;0.60;;
37407;SDS011;24866;50.248;8.252;2023-04-01T02:55:09;4.28;;;1.80;;
37407;SDS011;24866;50.248;8.252;2023-04-01T02:57:40;5.05;;;1.20;;
37407;SDS011;24866;50.248;8.252;2023-04-01T03:00:10;4.07;;;0.30;;
37407;SDS011;24866;50.248;8.252;2023-04-01T03:05:13;3.00;;;0.85;;
37407;SDS011;24866;50.248;8.252;2023-04-01T03:07:44;4.10;;;0.50;;
37407;SDS011;24866;50.248;8.252;2023-04-01T03:10:15;3.70;;;0.52;;
37407;SDS011;24866;50.248;8.252;2023-04-01T03:12:46;2.90;;;0.40;;
37407;SDS011;24866;50.248;8.252;2023-04-01T03:15:16;2.47;;;0.60;;
37407;SDS011;24866;50.248;8.252;2023-04-01T03:17:46;3.13;;;0.40;;
37407;SDS011;24866;50.248;8.252;2023-04-01T03:20:16;3.83;;;0.40;;
37407;SDS011;24866;50.248;8.252;2023-04-01T03:22:48;2.10;;;0.50;;
37407;SDS011;24866;50.248;8.252;2023-04-01T03:25:19;3.42;;;0.57;;
37407;SDS011;24866;50.248;8.252;2023-04-01T03:27:49;3.20;;;0.35;;
37407;SDS011;24866;50.248;8.252;2023-04-01T03:30:19;6.75;;;0.70;;
37407;SDS011;24866;50.248;8.252;2023-04-01T03:32:50;4.32;;;0.60;;
37407;SDS011;24866;50.248;8.252;2023-04-01T03:35:20;2.13;;;0.50;;
37407;SDS011;24866;50.248;8.252;2023-04-01T03:37:52;6.32;;;0.60;;
37407;SDS011;24866;50.248;8.252;2023-04-01T03:40:23;3.58;;;0.40;;
37407;SDS011;24866;50.248;8.252;2023-04-01T03:42:54;4.35;;;0.45;;
37407;SDS011;24866;50.248;8.252;2023-04-01T03:45:24;4.47;;;0.50;;
37407;SDS011;24866;50.248;8.252;2023-04-01T03:47:55;3.40;;;0.50;;
37407;SDS011;24866;50.248;8.252;2023-04-01T03:50:25;2.53;;;0.40;;
37407;SDS011;24866;50.248;8.252;2023-04-01T03:52:58;2.03;;;0.40;;
37407;SDS011;24866;50.248;8.252;2023-04-01T03:55:28;4.68;;;0.75;;
37407;SDS011;24866;50.248;8.252;2023-04-01T03:57:58;4.40;;;0.50;;
37407;SDS011;24866;50.248;8.252;2023-04-01T04:00:30;3.53;;;0.73;;
37407;SDS011;24866;50.248;8.252;2023-04-01T04:03:00;4.15;;;0.50;;
37407;SDS011;24866;50.248;8.252;2023-04-01T04:05:30;2.28;;;0.50;;
37407;SDS011;24866;50.248;8.252;2023-04-01T04:08:02;4.25;;;0.30;;
37407;SDS011;24866;50.248;8.252;2023-04-01T04:10:32;2.85;;;0.60;;
37407;SDS011;24866;50.248;8.252;2023-04-01T04:13:03;2.40;;;0.40;;
37407;SDS011;24866;50.248;8.252;2023-04-01T04:15:33;3.65;;;0.47;;
37407;SDS011;24866;50.248;8.252;2023-04-01T04:18:04;3.55;;;0.70;;
37407;SDS011;24866;50.248;8.252;2023-04-01T04:20:34;1.17;;;0.52;;
37407;SDS011;24866;50.248;8.252;2023-04-01T04:23:05;2.90;;;0.43;;
37407;SDS011;24866;50.248;8.252;2023-04-01T04:25:36;3.28;;;0.47;;
37407;SDS011;24866;50.248;8.252;2023-04-01T04:28:06;2.65;;;0.40;;
37407;SDS011;24866;50.248;8.252;2023-04-01T04:30:36;2.60;;;0.50;;
37407;SDS011;24866;50.248;8.252;2023-04-01T04:33:07;5.20;;;0.50;;
37407;SDS011;24866;50.248;8.252;2023-04-01T04:35:37;2.58;;;0.70;;
37407;SDS011;24866;50.248;8.252;2023-04-01T04:38:11;3.55;;;0.30;;
37407;SDS011;24866;50.248;8.252;2023-04-01T04:40:44;3.42;;;0.40;;
37407;SDS011;24866;50.248;8.252;2023-04-01T04:43:14;1.65;;;0.40;;
37407;SDS011;24866;50.248;8.252;2023-04-01T04:45:45;1.33;;;0.52;;
37407;SDS011;24866;50.248;8.252;2023-04-01T04:48:16;1.65;;;0.22;;
37407;SDS011;24866;50.248;8.252;2023-04-01T04:50:48;2.67;;;0.55;;
37407;SDS011;24866;50.248;8.252;2023-04-01T04:53:20;0.43;;;0.20;;
37407;SDS011;24866;50.248;8.252;2023-04-01T04:55:50;1.60;;;0.20;;
37407;SDS011;24866;50.248;8.252;2023-04-01T04:58:21;1.80;;;0.30;;
37407;SDS011;24866;50.248;8.252;2023-04-01T05:00:51;2.28;;;0.20;;
37407;SDS011;24866;50.248;8.252;2023-04-01T05:03:21;1.98;;;0.47;;
37407;SDS011;24866;50.248;8.252;2023-04-01T05:05:52;4.88;;;0.40;;
37407;SDS011;24866;50.248;8.252;2023-04-01T05:08:24;0.75;;;0.15;;
37407;SDS011;24866;50.248;8.252;2023-04-01T05:10:55;4.15;;;0.40;;
37407;SDS011;24866;50.248;8.252;2023-04-01T05:13:28;3.60;;;0.43;;
37407;SDS011;24866;50.248;8.252;2023-04-01T05:15:59;3.47;;;0.20;;
37407;SDS011;24866;50.248;8.252;2023-04-01T05:18:29;2.60;;;0.30;;
37407;SDS011;24866;50.248;8.252;2023-04-01T05:20:59;1.90;;;0.20;;
37407;SDS011;24866;50.248;8.252;2023-04-01T05:23:31;1.17;;;0.25;;
37407;SDS011;24866;50.248;8.252;2023-04-01T05:26:02;1.50;;;0.10;;
37407;SDS011;24866;50.248;8.252;2023-04-01T05:28:33;4.07;;;0.43;;
37407;SDS011;24866;50.248;8.252;2023-04-01T05:31:04;2.78;;;0.30;;
37407;SDS011;24866;50.248;8.252;2023-04-01T05:33:35;1.85;;;0.20;;
37407;SDS011;24866;50.248;8.252;2023-04-01T05:36:05;2.58;;;0.30;;
37407;SDS011;24866;50.248;8.252;2023-04-01T05:38:38;2.15;;;0.30;;
37407;SDS011;24866;50.248;8.252;2023-04-01T05:41:08;1.90;;;0.20;;
37407;SDS011;24866;50.248;8.252;2023-04-01T05:43:39;0.55;;;0.28;;
37407;SDS011;24866;50.248;8.252;2023-04-01T05:46:10;1.02;;;0.15;;
37407;SDS011;24866;50.248;8.252;2023-04-01T05:48:40;3.45;;;0.70;;
37407;SDS011;24866;50.248;8.252;2023-04-01T05:51:12;1.08;;;0.30;;
37407;SDS011;24866;50.248;8.252;2023-04-01T05:53:44;1.30;;;0.20;;
37407;SDS011;24866;50.248;8.252;2023-04-01T05:56:14;2.13;;;0.50;;
37407;SDS011;24866;50.248;8.252;2023-04-01T05:58:46;0.32;;;0.10;;
37407;SDS011;24866;50.248;8.252;2023-04-01T06:01:20;2.88;;;0.30;;
37407;SDS011;24866;50.248;8.252;2023-04-01T06:03:50;1.23;;;0.20;;
37407;SDS011;24866;50.248;8.252;2023-04-01T06:06:23;1.10;;;0.35;;
37407;SDS011;24866;50.248;8.252;2023-04-01T06:08:57;2.67;;;0.20;;
37407;SDS011;24866;50.248;8.252;2023-04-01T06:11:32;2.75;;;0.40;;
37407;SDS011;24866;50.248;8.252;2023-04-01T06:14:14;1.60;;;0.30;;
37407;SDS011;24866;50.248;8.252;2023-04-01T06:16:56;0.80;;;0.20;;
37407;SDS011;24866;50.248;8.252;2023-04-01T06:19:39;3.05;;;0.30;;
37407;SDS011;24866;50.248;8.252;2023-04-01T06:25:39;1.73;;;0.30;;
37407;SDS011;24866;50.248;8.252;2023-04-01T06:31:14;1.63;;;0.30;;
37407;SDS011;24866;50.248;8.252;2023-04-01T06:36:53;2.00;;;0.20;;
37407;SDS011;24866;50.248;8.252;2023-04-01T06:42:57;0.95;;;0.20;;
37407;SDS011;24866;50.248;8.252;2023-04-01T06:45:40;1.00;;;0.10;;
37407;SDS011;24866;50.248;8.252;2023-04-01T06:48:26;0.70;;;0.20;;
37407;SDS011;24866;50.248;8.252;2023-04-01T06:51:11;1.10;;;0.20;;
37407;SDS011;24866;50.248;8.252;2023-04-01T06:53:51;2.08;;;0.20;;
37407;SDS011;24866;50.248;8.252;2023-04-01T06:56:28;0.43;;;0.20;;
37407;SDS011;24866;50.248;8.252;2023-04-01T06:59:01;4.18;;;0.90;;
37407;SDS011;24866;50.248;8.252;2023-04-01T07:01:35;2.47;;;0.30;;
37407;SDS011;24866;50.248;8.252;2023-04-01T07:04:10;2.92;;;0.20;;
37407;SDS011;24866;50.248;8.252;2023-04-01T07:06:46;2.00;;;0.28;;
37407;SDS011;24866;50.248;8.252;2023-04-01T07:09:22;2.45;;;0.20;;
37407;SDS011;24866;50.248;8.252;2023-04-01T07:11:56;1.10;;;0.20;;
37407;SDS011;24866;50.248;8.252;2023-04-01T07:14:32;0.55;;;0.10;;
37407;SDS011;24866;50.248;8.252;2023-04-01T07:17:05;2.08;;;0.28;;
37407;SDS011;24866;50.248;8.252;2023-04-01T07:19:42;0.52;;;0.10;;
37407;SDS011;24866;50.248;8.252;2023-04-01T07:22:19;1.20;;;0.20;;
37407;SDS011;24866;50.248;8.252;2023-04-01T07:24:56;0.50;;;0.10;;
37407;SDS011;24866;50.248;8.252;2023-04-01T07:27:30;2.20;;;0.60;;
37407;SDS011;24866;50.248;8.252;2023-04-01T07:30:03;1.05;;;0.20;;
37407;SDS011;24866;50.248;8.252;2023-04-01T07:32:42;1.05;;;0.10;;
37407;SDS011;24866;50.248;8.252;2023-04-01T07:35:19;2.25;;;0.20;;
37407;SDS011;24866;50.248;8.252;2023-04-01T07:37:58;0.93;;;0.13;;
37407;SDS011;24866;50.248;8.252;2023-04-01T07:40:39;0.68;;;0.20;;
37407;SDS011;24866;50.248;8.252;2023-04-01T07:43:22;1.20;;;0.15;;
37407;SDS011;24866;50.248;8.252;2023-04-01T07:46:23;2.03;;;0.20;;
37407;SDS011;24866;50.248;8.252;2023-04-01T07:49:03;0.60;;;0.20;;
37407;SDS011;24866;50.248;8.252;2023-04-01T07:51:39;0.63;;;0.10;;
37407;SDS011;24866;50.248;8.252;2023-04-01T07:54:17;0.63;;;0.20;;
37407;SDS011;24866;50.248;8.252;2023-04-01T07:56:55;2.08;;;0.10;;
37407;SDS011;24866;50.248;8.252;2023-04-01T07:59:32;0.65;;;0.10;;
37407;SDS011;24866;50.248;8.252;2023-04-01T08:02:15;1.40;;;0.20;;
37407;SDS011;24866;50.248;8.252;2023-04-01T08:04:56;0.32;;;0.30;;
37407;SDS011;24866;50.248;8.252;2023-04-01T08:07:36;0.25;;;0.00;;
37407;SDS011;24866;50.248;8.252;2023-04-01T08:10:16;0.70;;;0.17;;
37407;SDS011;24866;50.248;8.252;2023-04-01T08:12:52;0.38;;;0.08;;
37407;SDS011;24866;50.248;8.252;2023-04-01T08:15:32;2.50;;;0.35;;
37407;SDS011;24866;50.248;8.252;2023-04-01T08:18:13;0.98;;;0.20;;
37407;SDS011;24866;50.248;8.252;2023-04-01T08:20:53;1.30;;;0.10;;
37407;SDS011;24866;50.248;8.252;2023-04-01T08:23:28;1.13;;;0.10;;
37407;SDS011;24866;50.248;8.252;2023-04-01T08:31:07;1.30;;;0.10;;
37407;SDS011;24866;50.248;8.252;2023-04-01T08:33:43;0.22;;;0.20;;
37407;SDS011;24866;50.248;8.252;2023-04-01T08:36:15;0.75;;;0.10;;
37407;SDS011;24866;50.248;8.252;2023-04-01T08:38:49;2.53;;;0.30;;
37407;SDS011;24866;50.248;8.252;2023-04-01T08:41:33;0.20;;;0.10;;
37407;SDS011;24866;50.248;8.252;2023-04-01T08:44:28;1.35;;;0.25;;
37407;SDS011;24866;50.248;8.252;2023-04-01T08:47:14;0.47;;;0.10;;
37407;SDS011;24866;50.248;8.252;2023-04-01T08:50:06;0.45;;;0.20;;
37407;SDS011;24866;50.248;8.252;2023-04-01T08:53:06;0.93;;;0.20;;
37407;SDS011;24866;50.248;8.252;2023-04-01T08:55:51;1.48;;;0.20;;
37407;SDS011;24866;50.248;8.252;2023-04-01T08:58:32;0.82;;;0.10;;
37407;SDS011;24866;50.248;8.252;2023-04-01T09:01:26;0.30;;;0.10;;
37407;SDS011;24866;50.248;8.252;2023-04-01T09:04:24;0.63;;;0.10;;
37407;SDS011;24866;50.248;8.252;2023-04-01T09:07:05;1.38;;;0.20;;
37407;SDS011;24866;50.248;8.252;2023-04-01T09:10:04;0.13;;;0.08;;
37407;SDS011;24866;50.248;8.252;2023-04-01T09:12:51;0.13;;;0.10;;
37407;SDS011;24866;50.248;8.252;2023-04-01T09:21:55;0.38;;;0.10;;
37407;SDS011;24866;50.248;8.252;2023-04-01T09:25:06;0.30;;;0.10;;
37407;SDS011;24866;50.248;8.252;2023-04-01T09:28:09;1.40;;;0.10;;
37407;SDS011;24866;50.248;8.252;2023-04-01T09:30:48;1.02;;;0.20;;
37407;SDS011;24866;50.248;8.252;2023-04-01T09:36:43;2.05;;;0.20;;
37407;SDS011;24866;50.248;8.252;2023-04-01T09:39:23;1.58;;;0.10;;
37407;SDS011;24866;50.248;8.252;2023-04-01T09:45:03;0.25;;;0.10;;
37407;SDS011;24866;50.248;8.252;2023-04-01T09:47:42;0.77;;;0.10;;
37407;SDS011;24866;50.248;8.252;2023-04-01T09:50:29;0.30;;;0.10;;
37407;SDS011;24866;50.248;8.252;2023-04-01T09:53:14;0.60;;;0.20;;
37407;SDS011;24866;50.248;8.252;2023-04-01T09:56:01;1.95;;;0.40;;
37407;SDS011;24866;50.248;8.252;2023-04-01T09:59:03;0.93;;;0.15;;
37407;SDS011;24866;50.248;8.252;2023-04-01T10:05:13;3.80;;;1.88;;
37407;SDS011;24866;50.248;8.252;2023-04-01T10:11:04;0.98;;;0.40;;
37407;SDS011;24866;50.248;8.252;2023-04-01T10:16:52;1.33;;;0.50;;
37407;SDS011;24866;50.248;8.252;2023-04-01T10:22:57;1.25;;;0.30;;
37407;SDS011;24866;50.248;8.252;2023-04-01T10:25:51;1.00;;;0.15;;
37407;SDS011;24866;50.248;8.252;2023-04-01T10:32:10;0.17;;;0.10;;
37407;SDS011;24866;50.248;8.252;2023-04-01T10:44:50;1.85;;;0.20;;
37407;SDS011;24866;50.248;8.252;2023-04-01T10:51:24;0.60;;;0.22;;
37407;SDS011;24866;50.248;8.252;2023-04-01T10:54:17;2.08;;;0.13;;
37407;SDS011;24866;50.248;8.252;2023-04-01T10:56:59;0.65;;;0.25;;
37407;SDS011;24866;50.248;8.252;2023-04-01T10:59:57;1.27;;;0.30;;
37407;SDS011;24866;50.248;8.252;2023-04-01T11:06:11;0.73;;;0.20;;
37407;SDS011;24866;50.248;8.252;2023-04-01T11:15:57;1.45;;;0.32;;
37407;SDS011;24866;50.248;8.252;2023-04-01T11:22:08;0.47;;;0.30;;
37407;SDS011;24866;50.248;8.252;2023-04-01T11:28:04;0.70;;;0.30;;
37407;SDS011;24866;50.248;8.252;2023-04-01T11:30:55;0.88;;;0.32;;
37407;SDS011;24866;50.248;8.252;2023-04-01T11:33:34;3.15;;;0.40;;
37407;SDS011;24866;50.248;8.252;2023-04-01T11:36:12;1.00;;;0.30;;
37407;SDS011;24866;50.248;8.252;2023-04-01T11:38:53;2.63;;;0.60;;
37407;SDS011;24866;50.248;8.252;2023-04-01T11:41:34;0.73;;;0.30;;
37407;SDS011;24866;50.248;8.252;2023-04-01T11:44:19;1.42;;;0.50;;
37407;SDS011;24866;50.248;8.252;2023-04-01T11:46:56;0.45;;;0.30;;
37407;SDS011;24866;50.248;8.252;2023-04-01T11:49:42;1.30;;;0.32;;
37407;SDS011;24866;50.248;8.252;2023-04-01T11:52:23;0.55;;;0.20;;
37407;SDS011;24866;50.248;8.252;2023-04-01T11:58:31;0.40;;;0.30;;
37407;SDS011;24866;50.248;8.252;2023-04-01T12:01:25;0.45;;;0.20;;
37407;SDS011;24866;50.248;8.252;2023-04-01T12:07:14;1.95;;;0.30;;
37407;SDS011;24866;50.248;8.252;2023-04-01T12:09:56;0.63;;;0.20;;
37407;SDS011;24866;50.248;8.252;2023-04-01T12:12:32;0.80;;;0.35;;
37407;SDS011;24866;50.248;8.252;2023-04-01T12:15:14;0.47;;;0.40;;
37407;SDS011;24866;50.248;8.252;2023-04-01T12:17:52;0.40;;;0.22;;
37407;SDS011;24866;50.248;8.252;2023-04-01T12:20:34;1.25;;;0.30;;
37407;SDS011;24866;50.248;8.252;2023-04-01T12:23:19;0.30;;;0.20;;
37407;SDS011;24866;50.248;8.252;2023-04-01T12:29:24;4.43;;;0.28;;
37407;SDS011;24866;50.248;8.252;2023-04-01T12:32:15;0.80;;;0.30;;
37407;SDS011;24866;50.248;8.252;2023-04-01T12:34:55;0.40;;;0.20;;
37407;SDS011;24866;50.248;8.252;2023-04-01T12:37:35;2.10;;;0.35;;
37407;SDS011;24866;50.248;8.252;2023-04-01T12:40:20;0.55;;;0.25;;
37407;SDS011;24866;50.248;8.252;2023-04-01T12:43:03;1.48;;;0.30;;
37407;SDS011;24866;50.248;8.252;2023-04-01T12:45:48;0.75;;;0.40;;
37407;SDS011;24866;50.248;8.252;2023-04-01T12:54:14;0.45;;;0.17;;
37407;SDS011;24866;50.248;8.252;2023-04-01T12:57:18;1.33;;;0.30;;
37407;SDS011;24866;50.248;8.252;2023-04-01T13:00:10;0.45;;;0.20;;
37407;SDS011;24866;50.248;8.252;2023-04-01T13:02:59;0.20;;;0.20;;
37407;SDS011;24866;50.248;8.252;2023-04-01T13:08:51;0.30;;;0.10;;
37407;SDS011;24866;50.248;8.252;2023-04-01T13:11:28;0.50;;;0.10;;
37407;SDS011;24866;50.248;8.252;2023-04-01T13:17:07;0.52;;;0.20;;
37407;SDS011;24866;50.248;8.252;2023-04-01T13:19:42;0.95;;;0.38;;
37407;SDS011;24866;50.248;8.252;2023-04-01T13:22:19;0.32;;;0.20;;
37407;SDS011;24866;50.248;8.252;2023-04-01T13:24:55;0.52;;;0.20;;
37407;SDS011;24866;50.248;8.252;2023-04-01T13:27:31;1.50;;;0.40;;
37407;SDS011;24866;50.248;8.252;2023-04-01T13:30:16;2.17;;;0.30;;
37407;SDS011;24866;50.248;8.252;2023-04-01T13:32:56;2.17;;;0.20;;
37407;SDS011;24866;50.248;8.252;2023-04-01T13:35:34;0.35;;;0.20;;
37407;SDS011;24866;50.248;8.252;2023-04-01T13:38:24;1.05;;;0.38;;
37407;SDS011;24866;50.248;8.252;2023-04-01T13:41:41;0.57;;;0.30;;
37407;SDS011;24866;50.248;8.252;2023-04-01T13:44:27;0.70;;;0.30;;
37407;SDS011;24866;50.248;8.252;2023-04-01T13:47:15;0.65;;;0.40;;
37407;SDS011;24866;50.248;8.252;2023-04-01T13:50:17;1.50;;;0.40;;
37407;SDS011;24866;50.248;8.252;2023-04-01T13:53:06;0.77;;;0.40;;
37407;SDS011;24866;50.248;8.252;2023-04-01T13:55:53;0.57;;;0.40;;
37407;SDS011;24866;50.248;8.252;2023-04-01T13:58:30;0.50;;;0.28;;
37407;SDS011;24866;50.248;8.252;2023-04-01T14:01:20;1.48;;;0.45;;
37407;SDS011;24866;50.248;8.252;2023-04-01T14:04:20;1.33;;;0.55;;
37407;SDS011;24866;50.248;8.252;2023-04-01T14:07:18;1.13;;;0.40;;
37407;SDS011;24866;50.248;8.252;2023-04-01T14:10:02;1.27;;;0.43;;
37407;SDS011;24866;50.248;8.252;2023-04-01T14:12:42;0.95;;;0.20;;
37407;SDS011;24866;50.248;8.252;2023-04-01T14:15:26;2.67;;;0.40;;
37407;SDS011;24866;50.248;8.252;2023-04-01T14:18:17;0.90;;;0.40;;
37407;SDS011;24866;50.248;8.252;2023-04-01T14:21:19;0.80;;;0.30;;
37407;SDS011;24866;50.248;8.252;2023-04-01T14:24:00;0.50;;;0.40;;
37407;SDS011;24866;50.248;8.252;2023-04-01T14:26:54;1.23;;;0.50;;
37407;SDS011;24866;50.248;8.252;2023-04-01T14:29:56;1.42;;;0.20;;
37407;SDS011;24866;50.248;8.252;2023-04-01T14:32:39;1.35;;;0.40;;
37407;SDS011;24866;50.248;8.252;2023-04-01T14:35:21;1.65;;;0.50;;
37407;SDS011;24866;50.248;8.252;2023-04-01T14:41:00;0.73;;;0.40;;
37407;SDS011;24866;50.248;8.252;2023-04-01T14:47:07;1.80;;;0.30;;
37407;SDS011;24866;50.248;8.252;2023-04-01T14:50:05;0.40;;;0.40;;
37407;SDS011;24866;50.248;8.252;2023-04-01T14:52:41;1.65;;;0.30;;
37407;SDS011;24866;50.248;8.252;2023-04-01T14:55:24;3.33;;;0.38;;
37407;SDS011;24866;50.248;8.252;2023-04-01T14:58:04;0.95;;;0.20;;
37407;SDS011;24866;50.248;8.252;2023-04-01T15:01:02;1.90;;;0.38;;
37407;SDS011;24866;50.248;8.252;2023-04-01T15:03:48;1.13;;;0.40;;
37407;SDS011;24866;50.248;8.252;2023-04-01T15:06:44;0.20;;;0.15;;
37407;SDS011;24866;50.248;8.252;2023-04-01T15:09:32;1.15;;;0.32;;
37407;SDS011;24866;50.248;8.252;2023-04-01T15:12:16;1.27;;;0.40;;
37407;SDS011;24866;50.248;8.252;2023-04-01T15:15:09;1.55;;;0.40;;
37407;SDS011;24866;50.248;8.252;2023-04-01T15:17:58;0.85;;;0.20;;
37407;SDS011;24866;50.248;8.252;2023-04-01T15:23:57;2.78;;;0.32;;
37407;SDS011;24866;50.248;8.252;2023-04-01T15:26:43;4.63;;;0.40;;
37407;SDS011;24866;50.248;8.252;2023-04-01T15:32:29;1.20;;;0.30;;
37407;SDS011;24866;50.248;8.252;2023-04-01T15:35:17;0.52;;;0.20;;
37407;SDS011;24866;50.248;8.252;2023-04-01T15:37:56;2.45;;;0.50;;
37407;SDS011;24866;50.248;8.252;2023-04-01T15:40:37;2.35;;;0.20;;
37407;SDS011;24866;50.248;8.252;2023-04-01T15:43:15;1.98;;;0.30;;
37407;SDS011;24866;50.248;8.252;2023-04-01T15:46:09;0.90;;;0.40;;
37407;SDS011;24866;50.248;8.252;2023-04-01T15:48:55;0.60;;;0.40;;
37407;SDS011;24866;50.248;8.252;2023-04-01T15:54:48;0.55;;;0.40;;
37407;SDS011;24866;50.248;8.252;2023-04-01T15:57:37;0.93;;;0.35;;
37407;SDS011;24866;50.248;8.252;2023-04-01T16:00:22;0.65;;;0.30;;
37407;SDS011;24866;50.248;8.252;2023-04-01T16:05:52;1.17;;;0.28;;
37407;SDS011;24866;50.248;8.252;2023-04-01T16:11:47;0.50;;;0.17;;
37407;SDS011;24866;50.248;8.252;2023-04-01T16:14:28;0.30;;;0.20;;
37407;SDS011;24866;50.248;8.252;2023-04-01T16:17:12;0.52;;;0.32;;
37407;SDS011;24866;50.248;8.252;2023-04-01T16:19:58;0.35;;;0.17;;
37407;SDS011;24866;50.248;8.252;2023-04-01T16:22:32;0.50;;;0.30;;
37407;SDS011;24866;50.248;8.252;2023-04-01T16:25:14;1.05;;;0.28;;
37407;SDS011;24866;50.248;8.252;2023-04-01T16:27:50;1.15;;;0.30;;
37407;SDS011;24866;50.248;8.252;2023-04-01T16:30:26;0.32;;;0.20;;
37407;SDS011;24866;50.248;8.252;2023-04-01T16:33:05;0.57;;;0.30;;
37407;SDS011;24866;50.248;8.252;2023-04-01T16:35:47;0.52;;;0.32;;
37407;SDS011;24866;50.248;8.252;2023-04-01T16:38:24;0.52;;;0.30;;
37407;SDS011;24866;50.248;8.252;2023-04-01T16:41:07;0.90;;;0.45;;
37407;SDS011;24866;50.248;8.252;2023-04-01T16:43:44;1.30;;;0.43;;
37407;SDS011;24866;50.248;8.252;2023-04-01T16:48:59;0.40;;;0.28;;
37407;SDS011;24866;50.248;8.252;2023-04-01T16:51:36;1.10;;;0.40;;
37407;SDS011;24866;50.248;8.252;2023-04-01T16:54:14;1.05;;;0.30;;
37407;SDS011;24866;50.248;8.252;2023-04-01T16:57:02;1.70;;;0.38;;
37407;SDS011;24866;50.248;8.252;2023-04-01T16:59:45;0.65;;;0.43;;
37407;SDS011;24866;50.248;8.252;2023-04-01T17:02:22;1.58;;;0.30;;
37407;SDS011;24866;50.248;8.252;2023-04-01T17:04:58;0.47;;;0.40;;
37407;SDS011;24866;50.248;8.252;2023-04-01T17:07:40;0.77;;;0.30;;
37407;SDS011;24866;50.248;8.252;2023-04-01T17:10:22;0.55;;;0.22;;
37407;SDS011;24866;50.248;8.252;2023-04-01T17:16:06;0.63;;;0.35;;
37407;SDS011;24866;50.248;8.252;2023-04-01T17:18:56;1.33;;;0.60;;
37407;SDS011;24866;50.248;8.252;2023-04-01T17:21:43;2.65;;;1.00;;
37407;SDS011;24866;50.248;8.252;2023-04-01T17:24:26;0.93;;;0.45;;
37407;SDS011;24866;50.248;8.252;2023-04-01T17:27:12;0.60;;;0.30;;
37407;SDS011;24866;50.248;8.252;2023-04-01T17:29:59;4.30;;;0.30;;
37407;SDS011;24866;50.248;8.252;2023-04-01T17:32:45;1.05;;;0.50;;
37407;SDS011;24866;50.248;8.252;2023-04-01T17:35:27;0.60;;;0.40;;
37407;SDS011;24866;50.248;8.252;2023-04-01T17:38:05;0.80;;;0.30;;
37407;SDS011;24866;50.248;8.252;2023-04-01T17:40:56;0.73;;;0.32;;
37407;SDS011;24866;50.248;8.252;2023-04-01T17:43:34;0.65;;;0.30;;
37407;SDS011;24866;50.248;8.252;2023-04-01T17:46:21;1.27;;;0.65;;
37407;SDS011;24866;50.248;8.252;2023-04-01T17:48:59;0.75;;;0.35;;
37407;SDS011;24866;50.248;8.252;2023-04-01T17:51:39;2.35;;;0.30;;
37407;SDS011;24866;50.248;8.252;2023-04-01T17:54:19;1.67;;;0.40;;
37407;SDS011;24866;50.248;8.252;2023-04-01T17:56:58;0.45;;;0.30;;
37407;SDS011;24866;50.248;8.252;2023-04-01T17:59:44;1.55;;;0.30;;
37407;SDS011;24866;50.248;8.252;2023-04-01T18:02:23;1.00;;;0.50;;
37407;SDS011;24866;50.248;8.252;2023-04-01T18:08:07;1.02;;;0.45;;
37407;SDS011;24866;50.248;8.252;2023-04-01T18:10:57;1.52;;;0.50;;